sensor_id;sensor_type;location;lat;lon;timestamp;temperature;humidity
16838;DHT22;19510;54.486;9.046;2023-05-10T00:02:16;16.10;99.90
16838;DHT22;19510;54.486;9.046;2023-05-10T00:04:42;16.10;99.90
16838;DHT22;19510;54.486;9.046;2023-05-10T00:07:12;16.10;99.90
16838;DHT22;19510;54.486;9.046;2023-05-10T00:09:41;16.10;99.90
16838;DHT22;19510;54.486;9.046;2023-05-10T00:12:06;16.10;99.90
16838;DHT22;19510;54.486;9.046;2023-05-10T00:14:32;16.10;99.90
16838;DHT22;19510;54.486;9.046;2023-05-10T00:16:58;16.10;99.90
16838;DHT22;19510;54.486;9.046;2023-05-10T00:19:24;16.00;99.90
16838;DHT22;19510;54.486;9.046;2023-05-10T00:21:50;16.00;99.90
16838;DHT22;19510;54.486;9.046;2023-05-10T00:24:15;16.00;99.90
16838;DHT22;19510;54.486;9.046;2023-05-10T00:26:41;16.00;99.90
16838;DHT22;19510;54.486;9.046;2023-05-10T00:29:08;16.00;99.90
16838;DHT22;19510;54.486;9.046;2023-05-10T00:31:34;16.00;99.90
16838;DHT22;19510;54.486;9.046;2023-05-10T00:34:00;16.00;99.90
16838;DHT22;19510;54.486;9.046;2023-05-10T00:36:25;16.00;99.90
16838;DHT22;19510;54.486;9.046;2023-05-10T00:38:51;15.90;99.90
16838;DHT22;19510;54.486;9.046;2023-05-10T00:41:17;15.90;99.90
16838;DHT22;19510;54.486;9.046;2023-05-10T00:43:43;15.90;99.90
16838;DHT22;19510;54.486;9.046;2023-05-10T00:46:08;15.90;99.90
16838;DHT22;19510;54.486;9.046;2023-05-10T00:48:34;15.90;99.90
16838;DHT22;19510;54.486;9.046;2023-05-10T00:51:01;15.90;99.90
16838;DHT22;19510;54.486;9.046;2023-05-10T00:53:27;15.90;99.90
16838;DHT22;19510;54.486;9.046;2023-05-10T00:55:54;15.80;99.90
16838;DHT22;19510;54.486;9.046;2023-05-10T00:58:22;15.80;99.90
16838;DHT22;19510;54.486;9.046;2023-05-10T01:00:49;15.80;99.90
16838;DHT22;19510;54.486;9.046;2023-05-10T01:03:16;15.80;99.90
16838;DHT22;19510;54.486;9.046;2023-05-10T01:05:42;15.80;99.90
16838;DHT22;19510;54.486;9.046;2023-05-10T01:08:08;15.70;99.90
16838;DHT22;19510;54.486;9.046;2023-05-10T01:10:34;15.70;99.90
16838;DHT22;19510;54.486;9.046;2023-05-10T01:13:00;15.70;99.90
16838;DHT22;19510;54.486;9.046;2023-05-10T01:15:26;15.70;99.90
16838;DHT22;19510;54.486;9.046;2023-05-10T01:17:55;15.60;99.90
16838;DHT22;19510;54.486;9.046;2023-05-10T01:20:22;15.70;99.90
16838;DHT22;19510;54.486;9.046;2023-05-10T01:25:59;15.60;99.90
16838;DHT22;19510;54.486;9.046;2023-05-10T01:28:39;15.60;99.90
16838;DHT22;19510;54.486;9.046;2023-05-10T01:34:16;15.50;99.90
16838;DHT22;19510;54.486;9.046;2023-05-10T01:39:42;15.50;99.90
16838;DHT22;19510;54.486;9.046;2023-05-10T01:42:07;15.50;99.90
16838;DHT22;19510;54.486;9.046;2023-05-10T01:44:49;15.40;99.90
16838;DHT22;19510;54.486;9.046;2023-05-10T01:50:02;15.40;99.90
16838;DHT22;19510;54.486;9.046;2023-05-10T01:52:36;15.30;99.90
16838;DHT22;19510;54.486;9.046;2023-05-10T01:55:08;15.30;99.90
16838;DHT22;19510;54.486;9.046;2023-05-10T01:57:44;15.30;99.90
16838;DHT22;19510;54.486;9.046;2023-05-10T02:00:12;15.20;99.90
16838;DHT22;19510;54.486;9.046;2023-05-10T02:02:45;15.20;99.90
16838;DHT22;19510;54.486;9.046;2023-05-10T02:05:13;15.20;99.90
16838;DHT22;19510;54.486;9.046;2023-05-10T02:07:43;15.10;99.90
16838;DHT22;19510;54.486;9.046;2023-05-10T02:10:10;15.10;99.90
16838;DHT22;19510;54.486;9.046;2023-05-10T02:12:42;15.00;99.90
16838;DHT22;19510;54.486;9.046;2023-05-10T02:15:09;15.00;99.90
16838;DHT22;19510;54.486;9.046;2023-05-10T02:17:37;15.00;99.90
16838;DHT22;19510;54.486;9.046;2023-05-10T02:20:05;15.00;99.90
16838;DHT22;19510;54.486;9.046;2023-05-10T02:22:32;15.00;99.90
16838;DHT22;19510;54.486;9.046;2023-05-10T02:24:59;15.00;99.90
16838;DHT22;19510;54.486;9.046;2023-05-10T02:27:27;14.90;99.90
16838;DHT22;19510;54.486;9.046;2023-05-10T02:29:54;14.90;99.90
16838;DHT22;19510;54.486;9.046;2023-05-10T02:32:23;14.80;99.90
16838;DHT22;19510;54.486;9.046;2023-05-10T02:34:51;14.80;99.90
16838;DHT22;19510;54.486;9.046;2023-05-10T02:37:21;14.80;99.90
16838;DHT22;19510;54.486;9.046;2023-05-10T02:39:49;14.70;99.90
16838;DHT22;19510;54.486;9.046;2023-05-10T02:42:22;14.70;99.90
16838;DHT22;19510;54.486;9.046;2023-05-10T02:44:51;14.60;99.90
16838;DHT22;19510;54.486;9.046;2023-05-10T02:47:18;14.50;99.90
16838;DHT22;19510;54.486;9.046;2023-05-10T02:49:44;14.50;99.90
16838;DHT22;19510;54.486;9.046;2023-05-10T02:52:10;14.40;99.90
16838;DHT22;19510;54.486;9.046;2023-05-10T02:54:45;14.40;99.90
16838;DHT22;19510;54.486;9.046;2023-05-10T02:57:15;14.40;99.90
16838;DHT22;19510;54.486;9.046;2023-05-10T02:59:43;14.40;99.90
16838;DHT22;19510;54.486;9.046;2023-05-10T03:02:11;14.30;99.90
16838;DHT22;19510;54.486;9.046;2023-05-10T03:04:40;14.30;99.90
16838;DHT22;19510;54.486;9.046;2023-05-10T03:07:08;14.20;99.90
16838;DHT22;19510;54.486;9.046;2023-05-10T03:09:34;14.20;99.90
16838;DHT22;19510;54.486;9.046;2023-05-10T03:20:10;14.10;99.90
16838;DHT22;19510;54.486;9.046;2023-05-10T03:22:51;14.20;99.90
16838;DHT22;19510;54.486;9.046;2023-05-10T03:25:19;14.10;99.90
16838;DHT22;19510;54.486;9.046;2023-05-10T03:27:47;14.10;99.90
16838;DHT22;19510;54.486;9.046;2023-05-10T03:30:13;14.10;99.90
16838;DHT22;19510;54.486;9.046;2023-05-10T03:32:40;14.10;99.90
16838;DHT22;19510;54.486;9.046;2023-05-10T03:35:09;14.10;99.90
16838;DHT22;19510;54.486;9.046;2023-05-10T03:37:35;14.10;99.90
16838;DHT22;19510;54.486;9.046;2023-05-10T03:40:02;14.10;99.90
16838;DHT22;19510;54.486;9.046;2023-05-10T03:42:28;14.10;99.90
16838;DHT22;19510;54.486;9.046;2023-05-10T03:44:56;14.10;99.90
16838;DHT22;19510;54.486;9.046;2023-05-10T03:47:24;14.00;99.90
16838;DHT22;19510;54.486;9.046;2023-05-10T03:49:50;14.00;99.90
16838;DHT22;19510;54.486;9.046;2023-05-10T03:52:18;14.10;99.90
16838;DHT22;19510;54.486;9.046;2023-05-10T03:54:44;14.00;99.90
16838;DHT22;19510;54.486;9.046;2023-05-10T03:57:09;14.00;99.90
16838;DHT22;19510;54.486;9.046;2023-05-10T03:59:37;14.00;99.90
16838;DHT22;19510;54.486;9.046;2023-05-10T04:02:03;14.00;99.90
16838;DHT22;19510;54.486;9.046;2023-05-10T04:04:29;14.00;99.90
16838;DHT22;19510;54.486;9.046;2023-05-10T04:06:57;14.00;99.90
16838;DHT22;19510;54.486;9.046;2023-05-10T04:09:23;14.00;99.90
16838;DHT22;19510;54.486;9.046;2023-05-10T04:11:48;14.00;99.90
16838;DHT22;19510;54.486;9.046;2023-05-10T04:14:14;14.10;99.90
16838;DHT22;19510;54.486;9.046;2023-05-10T04:16:40;14.00;99.90
16838;DHT22;19510;54.486;9.046;2023-05-10T04:19:05;14.10;99.90
16838;DHT22;19510;54.486;9.046;2023-05-10T04:21:34;14.00;99.90
16838;DHT22;19510;54.486;9.046;2023-05-10T04:24:00;14.00;99.90
16838;DHT22;19510;54.486;9.046;2023-05-10T04:26:25;14.00;99.90
16838;DHT22;19510;54.486;9.046;2023-05-10T04:28:53;14.00;99.90
16838;DHT22;19510;54.486;9.046;2023-05-10T04:31:19;14.00;99.90
16838;DHT22;19510;54.486;9.046;2023-05-10T04:33:45;14.00;99.90
16838;DHT22;19510;54.486;9.046;2023-05-10T04:36:12;14.00;99.90
16838;DHT22;19510;54.486;9.046;2023-05-10T04:38:38;14.00;99.90
16838;DHT22;19510;54.486;9.046;2023-05-10T04:41:08;14.00;99.90
16838;DHT22;19510;54.486;9.046;2023-05-10T04:43:36;14.00;99.90
16838;DHT22;19510;54.486;9.046;2023-05-10T04:46:05;14.00;99.90
16838;DHT22;19510;54.486;9.046;2023-05-10T04:48:31;14.00;99.90
16838;DHT22;19510;54.486;9.046;2023-05-10T04:50:57;14.10;99.90
16838;DHT22;19510;54.486;9.046;2023-05-10T04:53:23;14.20;99.90
16838;DHT22;19510;54.486;9.046;2023-05-10T04:55:48;14.20;99.90
16838;DHT22;19510;54.486;9.046;2023-05-10T04:58:17;14.20;99.90
16838;DHT22;19510;54.486;9.046;2023-05-10T05:00:42;14.20;99.90
16838;DHT22;19510;54.486;9.046;2023-05-10T05:03:13;14.20;99.90
16838;DHT22;19510;54.486;9.046;2023-05-10T05:05:38;14.20;99.90
16838;DHT22;19510;54.486;9.046;2023-05-10T05:08:06;14.20;99.90
16838;DHT22;19510;54.486;9.046;2023-05-10T05:10:32;14.20;99.90
16838;DHT22;19510;54.486;9.046;2023-05-10T05:12:58;14.20;99.90
16838;DHT22;19510;54.486;9.046;2023-05-10T05:15:24;14.20;99.90
16838;DHT22;19510;54.486;9.046;2023-05-10T05:17:50;14.10;99.90
16838;DHT22;19510;54.486;9.046;2023-05-10T05:20:18;14.20;99.90
16838;DHT22;19510;54.486;9.046;2023-05-10T05:22:46;14.20;99.90
16838;DHT22;19510;54.486;9.046;2023-05-10T05:25:12;14.20;99.90
16838;DHT22;19510;54.486;9.046;2023-05-10T05:27:38;14.20;99.90
16838;DHT22;19510;54.486;9.046;2023-05-10T05:30:04;14.20;99.90
16838;DHT22;19510;54.486;9.046;2023-05-10T05:32:30;14.20;99.90
16838;DHT22;19510;54.486;9.046;2023-05-10T05:34:58;14.30;99.90
16838;DHT22;19510;54.486;9.046;2023-05-10T05:37:26;14.30;99.90
16838;DHT22;19510;54.486;9.046;2023-05-10T05:39:52;14.40;99.90
16838;DHT22;19510;54.486;9.046;2023-05-10T05:42:19;14.40;99.90
16838;DHT22;19510;54.486;9.046;2023-05-10T05:44:45;14.40;99.90
16838;DHT22;19510;54.486;9.046;2023-05-10T05:47:11;14.40;99.90
16838;DHT22;19510;54.486;9.046;2023-05-10T05:49:37;14.50;99.90
16838;DHT22;19510;54.486;9.046;2023-05-10T05:52:04;14.60;99.90
16838;DHT22;19510;54.486;9.046;2023-05-10T05:54:33;14.50;99.90
16838;DHT22;19510;54.486;9.046;2023-05-10T05:57:01;14.40;99.90
16838;DHT22;19510;54.486;9.046;2023-05-10T05:59:28;14.50;99.90
16838;DHT22;19510;54.486;9.046;2023-05-10T06:01:57;14.50;99.90
16838;DHT22;19510;54.486;9.046;2023-05-10T06:04:23;14.50;99.90
16838;DHT22;19510;54.486;9.046;2023-05-10T06:06:49;14.50;99.90
16838;DHT22;19510;54.486;9.046;2023-05-10T06:09:15;14.50;99.90
16838;DHT22;19510;54.486;9.046;2023-05-10T06:11:41;14.50;99.90
16838;DHT22;19510;54.486;9.046;2023-05-10T06:14:06;14.50;99.90
16838;DHT22;19510;54.486;9.046;2023-05-10T06:16:38;14.60;99.90
16838;DHT22;19510;54.486;9.046;2023-05-10T06:19:06;14.60;99.90
16838;DHT22;19510;54.486;9.046;2023-05-10T06:21:32;14.70;99.90
16838;DHT22;19510;54.486;9.046;2023-05-10T06:23:58;14.70;99.90
16838;DHT22;19510;54.486;9.046;2023-05-10T06:26:23;14.80;99.90
16838;DHT22;19510;54.486;9.046;2023-05-10T06:28:49;14.80;99.90
16838;DHT22;19510;54.486;9.046;2023-05-10T06:31:15;14.80;99.90
16838;DHT22;19510;54.486;9.046;2023-05-10T06:33:41;14.80;99.90
16838;DHT22;19510;54.486;9.046;2023-05-10T06:36:07;14.90;99.90
16838;DHT22;19510;54.486;9.046;2023-05-10T06:38:35;15.00;99.90
16838;DHT22;19510;54.486;9.046;2023-05-10T06:41:00;15.00;99.90
16838;DHT22;19510;54.486;9.046;2023-05-10T06:43:26;15.10;99.90
16838;DHT22;19510;54.486;9.046;2023-05-10T06:45:54;15.20;99.90
16838;DHT22;19510;54.486;9.046;2023-05-10T06:48:19;15.20;99.90
16838;DHT22;19510;54.486;9.046;2023-05-10T06:50:45;15.20;99.90
16838;DHT22;19510;54.486;9.046;2023-05-10T06:53:11;15.30;99.90
16838;DHT22;19510;54.486;9.046;2023-05-10T06:55:39;15.40;99.90
16838;DHT22;19510;54.486;9.046;2023-05-10T06:58:07;15.40;99.90
16838;DHT22;19510;54.486;9.046;2023-05-10T07:00:33;15.40;99.90
16838;DHT22;19510;54.486;9.046;2023-05-10T07:02:58;15.40;99.90
16838;DHT22;19510;54.486;9.046;2023-05-10T07:05:24;15.30;99.90
16838;DHT22;19510;54.486;9.046;2023-05-10T07:07:50;15.30;99.90
16838;DHT22;19510;54.486;9.046;2023-05-10T07:10:17;15.30;99.90
16838;DHT22;19510;54.486;9.046;2023-05-10T07:12:43;15.30;99.90
16838;DHT22;19510;54.486;9.046;2023-05-10T07:15:09;15.30;99.90
16838;DHT22;19510;54.486;9.046;2023-05-10T07:17:34;15.30;99.90
16838;DHT22;19510;54.486;9.046;2023-05-10T07:20:02;15.40;99.90
16838;DHT22;19510;54.486;9.046;2023-05-10T07:22:29;15.30;99.90
16838;DHT22;19510;54.486;9.046;2023-05-10T07:24:55;15.40;99.90
16838;DHT22;19510;54.486;9.046;2023-05-10T07:27:23;15.50;99.90
16838;DHT22;19510;54.486;9.046;2023-05-10T07:29:48;15.50;99.90
16838;DHT22;19510;54.486;9.046;2023-05-10T07:32:14;15.60;99.90
16838;DHT22;19510;54.486;9.046;2023-05-10T07:34:40;15.60;99.90
16838;DHT22;19510;54.486;9.046;2023-05-10T07:37:05;15.60;99.90
16838;DHT22;19510;54.486;9.046;2023-05-10T07:39:34;15.60;99.90
16838;DHT22;19510;54.486;9.046;2023-05-10T07:42:02;15.60;99.90
16838;DHT22;19510;54.486;9.046;2023-05-10T07:44:28;15.60;99.90
16838;DHT22;19510;54.486;9.046;2023-05-10T07:46:56;15.60;99.90
16838;DHT22;19510;54.486;9.046;2023-05-10T07:49:22;15.70;99.90
16838;DHT22;19510;54.486;9.046;2023-05-10T07:51:49;15.60;99.90
16838;DHT22;19510;54.486;9.046;2023-05-10T07:54:15;15.60;99.90
16838;DHT22;19510;54.486;9.046;2023-05-10T07:56:41;15.70;99.90
16838;DHT22;19510;54.486;9.046;2023-05-10T07:59:15;15.70;99.90
16838;DHT22;19510;54.486;9.046;2023-05-10T08:01:44;15.80;99.90
16838;DHT22;19510;54.486;9.046;2023-05-10T08:04:10;15.80;99.90
16838;DHT22;19510;54.486;9.046;2023-05-10T08:06:42;15.90;99.90
16838;DHT22;19510;54.486;9.046;2023-05-10T08:09:08;15.90;99.90
16838;DHT22;19510;54.486;9.046;2023-05-10T08:11:37;16.00;99.90
16838;DHT22;19510;54.486;9.046;2023-05-10T08:14:03;16.00;99.90
16838;DHT22;19510;54.486;9.046;2023-05-10T08:16:31;16.00;99.90
16838;DHT22;19510;54.486;9.046;2023-05-10T08:19:00;16.00;99.90
16838;DHT22;19510;54.486;9.046;2023-05-10T08:21:25;16.00;99.90
16838;DHT22;19510;54.486;9.046;2023-05-10T08:23:51;16.00;99.90
16838;DHT22;19510;54.486;9.046;2023-05-10T08:26:17;16.10;99.90
16838;DHT22;19510;54.486;9.046;2023-05-10T08:28:46;16.20;99.90
16838;DHT22;19510;54.486;9.046;2023-05-10T08:31:14;16.20;99.90
16838;DHT22;19510;54.486;9.046;2023-05-10T08:33:42;16.20;99.90
16838;DHT22;19510;54.486;9.046;2023-05-10T08:36:08;16.30;99.90
16838;DHT22;19510;54.486;9.046;2023-05-10T08:38:34;16.30;99.90
16838;DHT22;19510;54.486;9.046;2023-05-10T08:41:01;16.30;99.90
16838;DHT22;19510;54.486;9.046;2023-05-10T08:43:28;16.40;99.90
16838;DHT22;19510;54.486;9.046;2023-05-10T08:46:00;16.40;99.90
16838;DHT22;19510;54.486;9.046;2023-05-10T08:48:29;16.40;99.90
16838;DHT22;19510;54.486;9.046;2023-05-10T08:50:58;16.40;99.90
16838;DHT22;19510;54.486;9.046;2023-05-10T08:53:25;16.40;99.90
16838;DHT22;19510;54.486;9.046;2023-05-10T08:55:53;16.50;99.90
16838;DHT22;19510;54.486;9.046;2023-05-10T08:58:19;16.40;99.90
16838;DHT22;19510;54.486;9.046;2023-05-10T09:00:48;16.50;99.90
16838;DHT22;19510;54.486;9.046;2023-05-10T09:03:14;16.40;99.90
16838;DHT22;19510;54.486;9.046;2023-05-10T09:05:40;16.50;99.90
16838;DHT22;19510;54.486;9.046;2023-05-10T09:08:08;16.50;99.90
16838;DHT22;19510;54.486;9.046;2023-05-10T09:10:34;16.50;99.90
16838;DHT22;19510;54.486;9.046;2023-05-10T09:13:03;16.50;99.90
16838;DHT22;19510;54.486;9.046;2023-05-10T09:15:29;16.50;99.90
16838;DHT22;19510;54.486;9.046;2023-05-10T09:17:57;16.50;99.90
16838;DHT22;19510;54.486;9.046;2023-05-10T09:20:24;16.50;99.90
16838;DHT22;19510;54.486;9.046;2023-05-10T09:22:50;16.60;99.90
16838;DHT22;19510;54.486;9.046;2023-05-10T09:25:16;16.60;99.90
16838;DHT22;19510;54.486;9.046;2023-05-10T09:27:46;16.70;99.90
16838;DHT22;19510;54.486;9.046;2023-05-10T09:30:17;16.70;99.90
16838;DHT22;19510;54.486;9.046;2023-05-10T09:32:45;16.70;99.90
16838;DHT22;19510;54.486;9.046;2023-05-10T09:35:13;16.70;99.90
16838;DHT22;19510;54.486;9.046;2023-05-10T09:37:40;16.70;99.90
16838;DHT22;19510;54.486;9.046;2023-05-10T09:40:08;16.70;99.90
16838;DHT22;19510;54.486;9.046;2023-05-10T09:42:36;16.70;99.90
16838;DHT22;19510;54.486;9.046;2023-05-10T09:45:06;16.70;99.90
16838;DHT22;19510;54.486;9.046;2023-05-10T09:47:36;16.70;99.90
16838;DHT22;19510;54.486;9.046;2023-05-10T09:50:05;16.70;99.90
16838;DHT22;19510;54.486;9.046;2023-05-10T09:52:55;16.70;99.90
16838;DHT22;19510;54.486;9.046;2023-05-10T09:55:25;16.70;99.90
16838;DHT22;19510;54.486;9.046;2023-05-10T09:58:01;16.70;99.90
16838;DHT22;19510;54.486;9.046;2023-05-10T10:00:34;16.80;99.90
16838;DHT22;19510;54.486;9.046;2023-05-10T10:03:00;16.80;99.90
16838;DHT22;19510;54.486;9.046;2023-05-10T10:05:35;16.80;99.90
16838;DHT22;19510;54.486;9.046;2023-05-10T10:08:04;16.70;99.90
16838;DHT22;19510;54.486;9.046;2023-05-10T10:10:33;16.80;99.90
16838;DHT22;19510;54.486;9.046;2023-05-10T10:13:01;16.80;99.90
16838;DHT22;19510;54.486;9.046;2023-05-10T10:15:27;16.80;99.90
16838;DHT22;19510;54.486;9.046;2023-05-10T10:17:55;16.70;99.90
16838;DHT22;19510;54.486;9.046;2023-05-10T10:20:22;16.80;99.90
16838;DHT22;19510;54.486;9.046;2023-05-10T10:22:48;16.70;99.90
16838;DHT22;19510;54.486;9.046;2023-05-10T10:25:16;16.70;99.90
16838;DHT22;19510;54.486;9.046;2023-05-10T10:27:49;16.60;99.90
16838;DHT22;19510;54.486;9.046;2023-05-10T10:30:31;16.60;99.90
16838;DHT22;19510;54.486;9.046;2023-05-10T10:35:34;16.40;99.90
16838;DHT22;19510;54.486;9.046;2023-05-10T10:38:02;16.40;99.90
16838;DHT22;19510;54.486;9.046;2023-05-10T10:40:30;16.40;99.90
16838;DHT22;19510;54.486;9.046;2023-05-10T10:42:57;16.40;99.90
16838;DHT22;19510;54.486;9.046;2023-05-10T10:45:24;16.30;99.90
16838;DHT22;19510;54.486;9.046;2023-05-10T10:48:43;16.30;99.90
16838;DHT22;19510;54.486;9.046;2023-05-10T10:51:03;16.40;99.90
16838;DHT22;19510;54.486;9.046;2023-05-10T10:53:30;16.40;99.90
16838;DHT22;19510;54.486;9.046;2023-05-10T10:56:06;16.30;99.90
16838;DHT22;19510;54.486;9.046;2023-05-10T10:58:33;16.40;99.90
16838;DHT22;19510;54.486;9.046;2023-05-10T11:01:14;16.40;99.90
16838;DHT22;19510;54.486;9.046;2023-05-10T11:03:40;16.40;99.90
16838;DHT22;19510;54.486;9.046;2023-05-10T11:06:06;16.40;99.90
16838;DHT22;19510;54.486;9.046;2023-05-10T11:08:41;16.50;99.90
16838;DHT22;19510;54.486;9.046;2023-05-10T11:11:07;16.50;99.90
16838;DHT22;19510;54.486;9.046;2023-05-10T11:16:09;16.50;99.90
16838;DHT22;19510;54.486;9.046;2023-05-10T11:18:39;16.50;99.90
16838;DHT22;19510;54.486;9.046;2023-05-10T11:21:05;16.50;99.90
16838;DHT22;19510;54.486;9.046;2023-05-10T11:26:11;16.30;99.90
16838;DHT22;19510;54.486;9.046;2023-05-10T11:28:49;16.40;99.90
16838;DHT22;19510;54.486;9.046;2023-05-10T11:31:21;16.30;99.90
16838;DHT22;19510;54.486;9.046;2023-05-10T11:33:51;16.10;99.90
16838;DHT22;19510;54.486;9.046;2023-05-10T11:36:19;16.10;99.90
16838;DHT22;19510;54.486;9.046;2023-05-10T11:38:46;16.00;99.90
16838;DHT22;19510;54.486;9.046;2023-05-10T11:41:13;16.00;99.90
16838;DHT22;19510;54.486;9.046;2023-05-10T11:43:40;16.00;99.90
16838;DHT22;19510;54.486;9.046;2023-05-10T11:46:13;16.10;99.90
16838;DHT22;19510;54.486;9.046;2023-05-10T11:48:45;16.20;99.90
16838;DHT22;19510;54.486;9.046;2023-05-10T11:51:11;16.20;99.90
16838;DHT22;19510;54.486;9.046;2023-05-10T11:53:37;16.10;99.90
16838;DHT22;19510;54.486;9.046;2023-05-10T11:56:11;16.10;99.90
16838;DHT22;19510;54.486;9.046;2023-05-10T11:58:38;15.90;99.90
16838;DHT22;19510;54.486;9.046;2023-05-10T12:01:07;15.90;99.90
16838;DHT22;19510;54.486;9.046;2023-05-10T12:03:37;15.90;99.90
16838;DHT22;19510;54.486;9.046;2023-05-10T12:06:06;15.90;99.90
16838;DHT22;19510;54.486;9.046;2023-05-10T12:08:32;15.90;99.90
16838;DHT22;19510;54.486;9.046;2023-05-10T12:11:08;15.80;99.90
16838;DHT22;19510;54.486;9.046;2023-05-10T12:13:39;15.70;99.90
16838;DHT22;19510;54.486;9.046;2023-05-10T12:16:23;15.60;99.90
16838;DHT22;19510;54.486;9.046;2023-05-10T12:18:55;15.50;99.90
16838;DHT22;19510;54.486;9.046;2023-05-10T12:21:21;15.50;99.90
16838;DHT22;19510;54.486;9.046;2023-05-10T12:23:53;15.40;99.90
16838;DHT22;19510;54.486;9.046;2023-05-10T12:26:23;15.50;99.90
16838;DHT22;19510;54.486;9.046;2023-05-10T12:28:50;15.50;99.90
16838;DHT22;19510;54.486;9.046;2023-05-10T12:31:15;15.50;99.90
16838;DHT22;19510;54.486;9.046;2023-05-10T12:33:43;15.50;99.90
16838;DHT22;19510;54.486;9.046;2023-05-10T12:36:10;15.50;99.90
16838;DHT22;19510;54.486;9.046;2023-05-10T12:38:38;15.60;99.90
16838;DHT22;19510;54.486;9.046;2023-05-10T12:41:19;15.60;99.90
16838;DHT22;19510;54.486;9.046;2023-05-10T12:43:46;15.60;99.90
16838;DHT22;19510;54.486;9.046;2023-05-10T12:46:14;15.70;99.90
16838;DHT22;19510;54.486;9.046;2023-05-10T12:48:41;15.80;99.90
16838;DHT22;19510;54.486;9.046;2023-05-10T12:51:10;15.90;99.90
16838;DHT22;19510;54.486;9.046;2023-05-10T12:53:41;15.90;99.90
16838;DHT22;19510;54.486;9.046;2023-05-10T12:56:07;16.00;99.90
16838;DHT22;19510;54.486;9.046;2023-05-10T12:58:33;16.00;99.90
16838;DHT22;19510;54.486;9.046;2023-05-10T13:00:59;16.10;99.90
16838;DHT22;19510;54.486;9.046;2023-05-10T13:03:25;16.00;99.90
16838;DHT22;19510;54.486;9.046;2023-05-10T13:05:51;16.00;99.90
16838;DHT22;19510;54.486;9.046;2023-05-10T13:08:19;15.90;99.90
16838;DHT22;19510;54.486;9.046;2023-05-10T13:10:45;15.90;99.90
16838;DHT22;19510;54.486;9.046;2023-05-10T13:13:12;15.80;99.90
16838;DHT22;19510;54.486;9.046;2023-05-10T13:15:42;15.90;99.90
16838;DHT22;19510;54.486;9.046;2023-05-10T13:18:10;15.90;99.90
16838;DHT22;19510;54.486;9.046;2023-05-10T13:20:36;15.90;99.90
16838;DHT22;19510;54.486;9.046;2023-05-10T13:23:04;15.90;99.90
16838;DHT22;19510;54.486;9.046;2023-05-10T13:25:30;15.80;99.90
16838;DHT22;19510;54.486;9.046;2023-05-10T13:27:56;15.70;99.90
16838;DHT22;19510;54.486;9.046;2023-05-10T13:30:22;15.60;99.90
16838;DHT22;19510;54.486;9.046;2023-05-10T13:32:49;15.60;99.90
16838;DHT22;19510;54.486;9.046;2023-05-10T13:35:17;15.60;99.90
16838;DHT22;19510;54.486;9.046;2023-05-10T13:37:43;15.70;99.90
16838;DHT22;19510;54.486;9.046;2023-05-10T13:40:10;15.60;99.90
16838;DHT22;19510;54.486;9.046;2023-05-10T13:42:36;15.60;99.90
16838;DHT22;19510;54.486;9.046;2023-05-10T13:45:02;15.60;99.90
16838;DHT22;19510;54.486;9.046;2023-05-10T13:47:28;15.60;99.90
16838;DHT22;19510;54.486;9.046;2023-05-10T13:49:53;15.60;99.90
16838;DHT22;19510;54.486;9.046;2023-05-10T13:52:21;15.70;99.90
16838;DHT22;19510;54.486;9.046;2023-05-10T13:54:47;15.70;99.90
16838;DHT22;19510;54.486;9.046;2023-05-10T13:57:12;15.70;99.90
16838;DHT22;19510;54.486;9.046;2023-05-10T13:59:39;15.60;99.90
16838;DHT22;19510;54.486;9.046;2023-05-10T14:02:07;15.60;99.90
16838;DHT22;19510;54.486;9.046;2023-05-10T14:04:33;15.60;99.90
16838;DHT22;19510;54.486;9.046;2023-05-10T14:07:01;15.50;99.90
16838;DHT22;19510;54.486;9.046;2023-05-10T14:09:30;15.50;99.90
16838;DHT22;19510;54.486;9.046;2023-05-10T14:11:55;15.40;99.90
16838;DHT22;19510;54.486;9.046;2023-05-10T14:14:24;15.30;99.90
16838;DHT22;19510;54.486;9.046;2023-05-10T14:16:50;15.30;99.90
16838;DHT22;19510;54.486;9.046;2023-05-10T14:19:15;15.40;99.90
16838;DHT22;19510;54.486;9.046;2023-05-10T14:21:41;15.30;99.90
16838;DHT22;19510;54.486;9.046;2023-05-10T14:24:09;15.30;99.90
16838;DHT22;19510;54.486;9.046;2023-05-10T14:26:35;15.30;99.90
16838;DHT22;19510;54.486;9.046;2023-05-10T14:29:01;15.30;99.90
16838;DHT22;19510;54.486;9.046;2023-05-10T14:31:27;15.30;99.90
16838;DHT22;19510;54.486;9.046;2023-05-10T14:33:55;15.30;99.90
16838;DHT22;19510;54.486;9.046;2023-05-10T14:36:21;15.30;99.90
16838;DHT22;19510;54.486;9.046;2023-05-10T14:38:47;15.30;99.90
16838;DHT22;19510;54.486;9.046;2023-05-10T14:41:15;15.30;99.90
16838;DHT22;19510;54.486;9.046;2023-05-10T14:43:42;15.30;99.90
16838;DHT22;19510;54.486;9.046;2023-05-10T14:46:13;15.30;99.90
16838;DHT22;19510;54.486;9.046;2023-05-10T14:48:39;15.40;99.90
16838;DHT22;19510;54.486;9.046;2023-05-10T14:51:07;15.40;99.90
16838;DHT22;19510;54.486;9.046;2023-05-10T14:53:33;15.40;99.90
16838;DHT22;19510;54.486;9.046;2023-05-10T14:55:59;15.40;99.90
16838;DHT22;19510;54.486;9.046;2023-05-10T14:58:26;15.40;99.90
16838;DHT22;19510;54.486;9.046;2023-05-10T15:00:52;15.40;99.90
16838;DHT22;19510;54.486;9.046;2023-05-10T15:03:20;15.50;99.90
16838;DHT22;19510;54.486;9.046;2023-05-10T15:05:47;15.40;99.90
16838;DHT22;19510;54.486;9.046;2023-05-10T15:08:12;15.50;99.90
16838;DHT22;19510;54.486;9.046;2023-05-10T15:10:39;15.40;99.90
16838;DHT22;19510;54.486;9.046;2023-05-10T15:13:09;15.40;99.90
16838;DHT22;19510;54.486;9.046;2023-05-10T15:15:35;15.40;99.90
16838;DHT22;19510;54.486;9.046;2023-05-10T15:18:09;15.50;99.90
16838;DHT22;19510;54.486;9.046;2023-05-10T15:20:35;15.50;99.90
16838;DHT22;19510;54.486;9.046;2023-05-10T15:23:01;15.50;99.90
16838;DHT22;19510;54.486;9.046;2023-05-10T15:25:29;15.50;99.90
16838;DHT22;19510;54.486;9.046;2023-05-10T15:27:55;15.40;99.90
16838;DHT22;19510;54.486;9.046;2023-05-10T15:30:21;15.50;99.90
16838;DHT22;19510;54.486;9.046;2023-05-10T15:32:46;15.40;99.90
16838;DHT22;19510;54.486;9.046;2023-05-10T15:35:12;15.40;99.90
16838;DHT22;19510;54.486;9.046;2023-05-10T15:37:39;15.30;99.90
16838;DHT22;19510;54.486;9.046;2023-05-10T15:40:05;15.20;99.90
16838;DHT22;19510;54.486;9.046;2023-05-10T15:42:31;15.20;99.90
16838;DHT22;19510;54.486;9.046;2023-05-10T15:44:57;15.20;99.90
16838;DHT22;19510;54.486;9.046;2023-05-10T15:50:55;15.10;99.90
16838;DHT22;19510;54.486;9.046;2023-05-10T15:53:23;15.00;99.90
16838;DHT22;19510;54.486;9.046;2023-05-10T15:55:49;14.90;99.90
16838;DHT22;19510;54.486;9.046;2023-05-10T15:58:14;15.00;99.90
16838;DHT22;19510;54.486;9.046;2023-05-10T16:00:41;14.90;99.90
16838;DHT22;19510;54.486;9.046;2023-05-10T16:03:07;14.90;99.90
16838;DHT22;19510;54.486;9.046;2023-05-10T16:05:32;14.80;99.90